sensor_id;sensor_type;location;lat;lon;timestamp;P1;durP1;ratioP1;P2;durP2;ratioP2
12308;SDS011;6217;48.150;17.142;2024-01-30T00:03:40;24.30;;;15.23;;
12308;SDS011;6217;48.150;17.142;2024-01-30T00:07:46;20.85;;;14.27;;
12308;SDS011;6217;48.150;17.142;2024-01-30T00:11:52;33.75;;;17.08;;
12308;SDS011;6217;48.150;17.142;2024-01-30T00:15:57;32.35;;;15.02;;
12308;SDS011;6217;48.150;17.142;2024-01-30T00:20:05;29.65;;;15.85;;
12308;SDS011;6217;48.150;17.142;2024-01-30T00:24:14;26.88;;;15.73;;
12308;SDS011;6217;48.150;17.142;2024-01-30T00:28:20;27.38;;;14.98;;
12308;SDS011;6217;48.150;17.142;2024-01-30T00:32:26;30.23;;;14.77;;
12308;SDS011;6217;48.150;17.142;2024-01-30T00:36:32;27.05;;;15.00;;
12308;SDS011;6217;48.150;17.142;2024-01-30T00:40:39;30.27;;;15.43;;
12308;SDS011;6217;48.150;17.142;2024-01-30T00:44:45;27.30;;;15.40;;
12308;SDS011;6217;48.150;17.142;2024-01-30T00:48:51;21.92;;;12.63;;
12308;SDS011;6217;48.150;17.142;2024-01-30T00:52:57;28.27;;;14.30;;
12308;SDS011;6217;48.150;17.142;2024-01-30T00:57:03;30.13;;;15.57;;
12308;SDS011;6217;48.150;17.142;2024-01-30T01:01:09;29.63;;;16.23;;
12308;SDS011;6217;48.150;17.142;2024-01-30T01:05:15;42.92;;;15.95;;
12308;SDS011;6217;48.150;17.142;2024-01-30T01:09:21;31.95;;;14.65;;
12308;SDS011;6217;48.150;17.142;2024-01-30T01:13:27;30.08;;;15.00;;
12308;SDS011;6217;48.150;17.142;2024-01-30T01:17:34;30.73;;;15.18;;
12308;SDS011;6217;48.150;17.142;2024-01-30T01:21:40;22.08;;;13.25;;
12308;SDS011;6217;48.150;17.142;2024-01-30T01:25:46;28.20;;;13.82;;
12308;SDS011;6217;48.150;17.142;2024-01-30T01:29:52;25.58;;;15.15;;
12308;SDS011;6217;48.150;17.142;2024-01-30T01:33:58;27.95;;;15.45;;
12308;SDS011;6217;48.150;17.142;2024-01-30T01:38:04;25.50;;;13.85;;
12308;SDS011;6217;48.150;17.142;2024-01-30T01:42:10;26.75;;;15.43;;
12308;SDS011;6217;48.150;17.142;2024-01-30T01:46:16;28.75;;;16.83;;
12308;SDS011;6217;48.150;17.142;2024-01-30T01:50:23;23.63;;;12.00;;
12308;SDS011;6217;48.150;17.142;2024-01-30T01:54:29;28.30;;;14.73;;
12308;SDS011;6217;48.150;17.142;2024-01-30T01:58:36;30.48;;;14.27;;
12308;SDS011;6217;48.150;17.142;2024-01-30T02:02:43;27.92;;;14.10;;
12308;SDS011;6217;48.150;17.142;2024-01-30T02:06:50;24.58;;;13.73;;
12308;SDS011;6217;48.150;17.142;2024-01-30T02:10:57;29.17;;;14.43;;
12308;SDS011;6217;48.150;17.142;2024-01-30T02:15:03;26.23;;;12.57;;
12308;SDS011;6217;48.150;17.142;2024-01-30T02:19:10;27.63;;;13.20;;
12308;SDS011;6217;48.150;17.142;2024-01-30T02:23:16;22.83;;;13.05;;
12308;SDS011;6217;48.150;17.142;2024-01-30T02:27:23;20.63;;;12.43;;
12308;SDS011;6217;48.150;17.142;2024-01-30T02:31:29;21.23;;;12.48;;
12308;SDS011;6217;48.150;17.142;2024-01-30T02:35:35;22.33;;;12.43;;
12308;SDS011;6217;48.150;17.142;2024-01-30T02:39:41;27.30;;;13.43;;
12308;SDS011;6217;48.150;17.142;2024-01-30T02:43:47;29.98;;;13.52;;
12308;SDS011;6217;48.150;17.142;2024-01-30T02:47:52;24.20;;;13.00;;
12308;SDS011;6217;48.150;17.142;2024-01-30T02:51:58;24.45;;;12.55;;
12308;SDS011;6217;48.150;17.142;2024-01-30T02:56:04;25.45;;;12.55;;
12308;SDS011;6217;48.150;17.142;2024-01-30T03:00:11;22.40;;;14.27;;
12308;SDS011;6217;48.150;17.142;2024-01-30T03:04:17;25.58;;;13.32;;
12308;SDS011;6217;48.150;17.142;2024-01-30T03:08:23;20.05;;;11.90;;
12308;SDS011;6217;48.150;17.142;2024-01-30T03:12:29;19.92;;;11.98;;
12308;SDS011;6217;48.150;17.142;2024-01-30T03:16:35;20.85;;;13.43;;
12308;SDS011;6217;48.150;17.142;2024-01-30T03:20:41;25.95;;;13.10;;
12308;SDS011;6217;48.150;17.142;2024-01-30T03:24:47;25.63;;;14.13;;
12308;SDS011;6217;48.150;17.142;2024-01-30T03:28:53;25.38;;;13.00;;
12308;SDS011;6217;48.150;17.142;2024-01-30T03:32:59;23.15;;;12.88;;
12308;SDS011;6217;48.150;17.142;2024-01-30T03:37:05;25.55;;;13.70;;
12308;SDS011;6217;48.150;17.142;2024-01-30T03:41:11;28.10;;;13.82;;
12308;SDS011;6217;48.150;17.142;2024-01-30T03:45:17;26.42;;;15.18;;
12308;SDS011;6217;48.150;17.142;2024-01-30T03:49:24;30.63;;;13.55;;
12308;SDS011;6217;48.150;17.142;2024-01-30T03:53:30;19.08;;;13.15;;
12308;SDS011;6217;48.150;17.142;2024-01-30T03:57:36;23.35;;;12.00;;
12308;SDS011;6217;48.150;17.142;2024-01-30T04:01:42;25.90;;;13.15;;
12308;SDS011;6217;48.150;17.142;2024-01-30T04:05:52;20.67;;;12.23;;
12308;SDS011;6217;48.150;17.142;2024-01-30T04:09:59;25.55;;;12.77;;
12308;SDS011;6217;48.150;17.142;2024-01-30T04:14:05;23.13;;;12.73;;
12308;SDS011;6217;48.150;17.142;2024-01-30T04:18:11;21.00;;;12.60;;
12308;SDS011;6217;48.150;17.142;2024-01-30T04:22:17;21.70;;;12.95;;
12308;SDS011;6217;48.150;17.142;2024-01-30T04:26:22;21.73;;;11.93;;
12308;SDS011;6217;48.150;17.142;2024-01-30T04:30:28;28.73;;;11.93;;
12308;SDS011;6217;48.150;17.142;2024-01-30T04:34:35;22.70;;;13.45;;
12308;SDS011;6217;48.150;17.142;2024-01-30T04:38:42;25.00;;;12.45;;
12308;SDS011;6217;48.150;17.142;2024-01-30T04:42:48;28.95;;;13.07;;
12308;SDS011;6217;48.150;17.142;2024-01-30T04:46:54;24.23;;;14.55;;
12308;SDS011;6217;48.150;17.142;2024-01-30T04:51:04;26.38;;;14.05;;
12308;SDS011;6217;48.150;17.142;2024-01-30T04:55:10;27.70;;;13.90;;
12308;SDS011;6217;48.150;17.142;2024-01-30T04:59:16;22.98;;;14.25;;
12308;SDS011;6217;48.150;17.142;2024-01-30T05:03:22;22.80;;;13.13;;
12308;SDS011;6217;48.150;17.142;2024-01-30T05:07:29;26.65;;;14.07;;
12308;SDS011;6217;48.150;17.142;2024-01-30T05:11:38;24.13;;;14.38;;
12308;SDS011;6217;48.150;17.142;2024-01-30T05:15:45;27.80;;;12.70;;
12308;SDS011;6217;48.150;17.142;2024-01-30T05:19:51;22.83;;;12.73;;
12308;SDS011;6217;48.150;17.142;2024-01-30T05:23:57;22.10;;;14.02;;
12308;SDS011;6217;48.150;17.142;2024-01-30T05:28:02;21.67;;;14.05;;
12308;SDS011;6217;48.150;17.142;2024-01-30T05:32:09;22.75;;;12.73;;
12308;SDS011;6217;48.150;17.142;2024-01-30T05:36:15;32.13;;;15.25;;
12308;SDS011;6217;48.150;17.142;2024-01-30T05:40:22;25.23;;;16.10;;
12308;SDS011;6217;48.150;17.142;2024-01-30T05:44:28;23.90;;;14.40;;
12308;SDS011;6217;48.150;17.142;2024-01-30T05:48:34;25.08;;;13.40;;
12308;SDS011;6217;48.150;17.142;2024-01-30T05:52:40;26.17;;;14.55;;
12308;SDS011;6217;48.150;17.142;2024-01-30T05:56:46;27.67;;;14.55;;
12308;SDS011;6217;48.150;17.142;2024-01-30T06:00:52;24.23;;;13.15;;
12308;SDS011;6217;48.150;17.142;2024-01-30T06:04:58;23.83;;;12.82;;
12308;SDS011;6217;48.150;17.142;2024-01-30T06:09:04;24.67;;;14.23;;
12308;SDS011;6217;48.150;17.142;2024-01-30T06:13:10;23.05;;;12.88;;
12308;SDS011;6217;48.150;17.142;2024-01-30T06:17:16;25.63;;;13.18;;
12308;SDS011;6217;48.150;17.142;2024-01-30T06:21:23;25.83;;;12.70;;
12308;SDS011;6217;48.150;17.142;2024-01-30T06:25:29;26.92;;;13.80;;
12308;SDS011;6217;48.150;17.142;2024-01-30T06:29:35;26.20;;;13.23;;
12308;SDS011;6217;48.150;17.142;2024-01-30T06:33:41;25.35;;;12.85;;
12308;SDS011;6217;48.150;17.142;2024-01-30T06:37:47;27.33;;;16.35;;
12308;SDS011;6217;48.150;17.142;2024-01-30T06:41:53;26.45;;;14.10;;
12308;SDS011;6217;48.150;17.142;2024-01-30T06:45:59;23.15;;;14.25;;
12308;SDS011;6217;48.150;17.142;2024-01-30T06:50:05;26.48;;;13.45;;
12308;SDS011;6217;48.150;17.142;2024-01-30T06:54:12;27.90;;;17.20;;
12308;SDS011;6217;48.150;17.142;2024-01-30T06:58:18;25.00;;;13.85;;
12308;SDS011;6217;48.150;17.142;2024-01-30T07:02:24;25.38;;;13.65;;
12308;SDS011;6217;48.150;17.142;2024-01-30T07:06:30;24.52;;;14.75;;
12308;SDS011;6217;48.150;17.142;2024-01-30T07:10:35;26.60;;;12.70;;
12308;SDS011;6217;48.150;17.142;2024-01-30T07:14:41;25.40;;;12.43;;
12308;SDS011;6217;48.150;17.142;2024-01-30T07:18:47;24.63;;;13.85;;
12308;SDS011;6217;48.150;17.142;2024-01-30T07:22:54;24.33;;;12.70;;
12308;SDS011;6217;48.150;17.142;2024-01-30T07:27:00;24.20;;;14.55;;
12308;SDS011;6217;48.150;17.142;2024-01-30T07:31:06;26.33;;;12.40;;
12308;SDS011;6217;48.150;17.142;2024-01-30T07:35:12;23.73;;;13.02;;
12308;SDS011;6217;48.150;17.142;2024-01-30T07:39:19;26.77;;;13.95;;
12308;SDS011;6217;48.150;17.142;2024-01-30T07:43:25;21.17;;;13.45;;
12308;SDS011;6217;48.150;17.142;2024-01-30T07:47:31;23.73;;;15.70;;
12308;SDS011;6217;48.150;17.142;2024-01-30T07:51:36;27.67;;;13.15;;
12308;SDS011;6217;48.150;17.142;2024-01-30T07:55:42;23.70;;;14.18;;
12308;SDS011;6217;48.150;17.142;2024-01-30T07:59:51;25.65;;;14.00;;
12308;SDS011;6217;48.150;17.142;2024-01-30T08:03:57;25.83;;;14.18;;
12308;SDS011;6217;48.150;17.142;2024-01-30T08:08:03;25.05;;;13.98;;
12308;SDS011;6217;48.150;17.142;2024-01-30T08:12:10;27.45;;;13.45;;
12308;SDS011;6217;48.150;17.142;2024-01-30T08:16:22;24.42;;;14.68;;
12308;SDS011;6217;48.150;17.142;2024-01-30T08:20:28;20.55;;;13.48;;
12308;SDS011;6217;48.150;17.142;2024-01-30T08:24:34;20.85;;;12.38;;
12308;SDS011;6217;48.150;17.142;2024-01-30T08:28:40;21.23;;;12.15;;
12308;SDS011;6217;48.150;17.142;2024-01-30T08:32:46;18.45;;;12.75;;
12308;SDS011;6217;48.150;17.142;2024-01-30T08:36:52;21.92;;;14.32;;
12308;SDS011;6217;48.150;17.142;2024-01-30T08:40:58;23.05;;;13.52;;
12308;SDS011;6217;48.150;17.142;2024-01-30T08:45:04;27.10;;;15.32;;
12308;SDS011;6217;48.150;17.142;2024-01-30T08:49:11;26.42;;;13.65;;
12308;SDS011;6217;48.150;17.142;2024-01-30T08:53:18;18.17;;;13.52;;
12308;SDS011;6217;48.150;17.142;2024-01-30T08:57:24;24.88;;;11.98;;
12308;SDS011;6217;48.150;17.142;2024-01-30T09:01:33;19.83;;;13.80;;
12308;SDS011;6217;48.150;17.142;2024-01-30T09:05:39;22.70;;;14.18;;
12308;SDS011;6217;48.150;17.142;2024-01-30T09:09:45;22.75;;;13.80;;
12308;SDS011;6217;48.150;17.142;2024-01-30T09:13:51;24.30;;;12.50;;
12308;SDS011;6217;48.150;17.142;2024-01-30T09:17:57;18.88;;;13.10;;
12308;SDS011;6217;48.150;17.142;2024-01-30T09:22:03;22.13;;;15.18;;
12308;SDS011;6217;48.150;17.142;2024-01-30T09:26:09;19.40;;;13.38;;
12308;SDS011;6217;48.150;17.142;2024-01-30T09:30:17;16.20;;;12.07;;
12308;SDS011;6217;48.150;17.142;2024-01-30T09:34:23;21.30;;;12.00;;
12308;SDS011;6217;48.150;17.142;2024-01-30T09:38:29;22.30;;;12.18;;
12308;SDS011;6217;48.150;17.142;2024-01-30T09:42:35;23.00;;;13.32;;
12308;SDS011;6217;48.150;17.142;2024-01-30T09:46:41;18.98;;;13.98;;
12308;SDS011;6217;48.150;17.142;2024-01-30T09:50:48;21.38;;;13.02;;
12308;SDS011;6217;48.150;17.142;2024-01-30T09:54:54;19.23;;;12.23;;
12308;SDS011;6217;48.150;17.142;2024-01-30T09:59:00;22.02;;;12.52;;
12308;SDS011;6217;48.150;17.142;2024-01-30T10:03:06;20.88;;;12.07;;
12308;SDS011;6217;48.150;17.142;2024-01-30T10:07:12;22.52;;;12.98;;
12308;SDS011;6217;48.150;17.142;2024-01-30T10:11:19;23.77;;;13.10;;
12308;SDS011;6217;48.150;17.142;2024-01-30T10:15:25;21.45;;;12.35;;
12308;SDS011;6217;48.150;17.142;2024-01-30T10:19:33;18.33;;;11.75;;
12308;SDS011;6217;48.150;17.142;2024-01-30T10:23:43;16.92;;;11.05;;
12308;SDS011;6217;48.150;17.142;2024-01-30T10:27:54;21.30;;;14.63;;
12308;SDS011;6217;48.150;17.142;2024-01-30T10:32:01;18.02;;;13.07;;
12308;SDS011;6217;48.150;17.142;2024-01-30T10:36:09;18.83;;;11.52;;
12308;SDS011;6217;48.150;17.142;2024-01-30T10:40:19;19.08;;;11.32;;
12308;SDS011;6217;48.150;17.142;2024-01-30T10:44:27;18.48;;;12.30;;
12308;SDS011;6217;48.150;17.142;2024-01-30T10:48:46;14.05;;;9.68;;
12308;SDS011;6217;48.150;17.142;2024-01-30T10:53:03;23.27;;;10.47;;
12308;SDS011;6217;48.150;17.142;2024-01-30T10:57:10;20.80;;;13.35;;
12308;SDS011;6217;48.150;17.142;2024-01-30T11:01:24;19.70;;;11.30;;
12308;SDS011;6217;48.150;17.142;2024-01-30T11:05:31;10.95;;;6.40;;
12308;SDS011;6217;48.150;17.142;2024-01-30T11:09:38;11.50;;;7.68;;
12308;SDS011;6217;48.150;17.142;2024-01-30T11:13:49;18.63;;;11.73;;
12308;SDS011;6217;48.150;17.142;2024-01-30T11:17:55;18.63;;;11.50;;
12308;SDS011;6217;48.150;17.142;2024-01-30T11:22:02;17.08;;;10.48;;
12308;SDS011;6217;48.150;17.142;2024-01-30T11:26:10;18.45;;;10.90;;
12308;SDS011;6217;48.150;17.142;2024-01-30T11:34:33;19.23;;;12.20;;
12308;SDS011;6217;48.150;17.142;2024-01-30T11:38:40;14.10;;;9.65;;
12308;SDS011;6217;48.150;17.142;2024-01-30T11:42:48;18.85;;;12.52;;
12308;SDS011;6217;48.150;17.142;2024-01-30T11:46:54;16.33;;;11.63;;
12308;SDS011;6217;48.150;17.142;2024-01-30T11:51:01;22.80;;;11.73;;
12308;SDS011;6217;48.150;17.142;2024-01-30T11:55:07;17.52;;;10.55;;
12308;SDS011;6217;48.150;17.142;2024-01-30T11:59:15;13.60;;;10.40;;
12308;SDS011;6217;48.150;17.142;2024-01-30T12:03:21;15.38;;;9.85;;
12308;SDS011;6217;48.150;17.142;2024-01-30T12:07:29;18.35;;;11.88;;
12308;SDS011;6217;48.150;17.142;2024-01-30T12:11:45;16.55;;;10.80;;
12308;SDS011;6217;48.150;17.142;2024-01-30T12:15:52;15.40;;;11.52;;
12308;SDS011;6217;48.150;17.142;2024-01-30T12:24:23;17.35;;;10.60;;
12308;SDS011;6217;48.150;17.142;2024-01-30T12:28:29;10.05;;;7.18;;
12308;SDS011;6217;48.150;17.142;2024-01-30T12:32:36;14.30;;;9.15;;
12308;SDS011;6217;48.150;17.142;2024-01-30T12:36:53;17.95;;;8.70;;
12308;SDS011;6217;48.150;17.142;2024-01-30T12:40:59;15.90;;;8.57;;
12308;SDS011;6217;48.150;17.142;2024-01-30T12:45:05;10.63;;;5.65;;
12308;SDS011;6217;48.150;17.142;2024-01-30T12:49:11;9.45;;;5.78;;
12308;SDS011;6217;48.150;17.142;2024-01-30T12:53:17;13.43;;;8.88;;
12308;SDS011;6217;48.150;17.142;2024-01-30T12:57:23;13.27;;;9.40;;
12308;SDS011;6217;48.150;17.142;2024-01-30T13:01:29;14.50;;;8.55;;
12308;SDS011;6217;48.150;17.142;2024-01-30T13:05:35;11.52;;;8.02;;
12308;SDS011;6217;48.150;17.142;2024-01-30T13:09:42;13.52;;;5.60;;
12308;SDS011;6217;48.150;17.142;2024-01-30T13:13:48;8.90;;;6.13;;
12308;SDS011;6217;48.150;17.142;2024-01-30T13:17:54;7.60;;;5.13;;
12308;SDS011;6217;48.150;17.142;2024-01-30T13:22:00;6.70;;;3.85;;
12308;SDS011;6217;48.150;17.142;2024-01-30T13:26:06;7.25;;;5.05;;
12308;SDS011;6217;48.150;17.142;2024-01-30T13:30:12;8.60;;;5.43;;
12308;SDS011;6217;48.150;17.142;2024-01-30T13:34:19;8.88;;;7.20;;
12308;SDS011;6217;48.150;17.142;2024-01-30T13:38:25;9.65;;;5.75;;
12308;SDS011;6217;48.150;17.142;2024-01-30T13:42:31;7.75;;;6.45;;
12308;SDS011;6217;48.150;17.142;2024-01-30T13:46:38;13.07;;;9.23;;
12308;SDS011;6217;48.150;17.142;2024-01-30T13:50:45;9.20;;;8.35;;
12308;SDS011;6217;48.150;17.142;2024-01-30T13:54:51;10.88;;;8.77;;
12308;SDS011;6217;48.150;17.142;2024-01-30T13:58:57;10.90;;;6.55;;
12308;SDS011;6217;48.150;17.142;2024-01-30T14:03:03;11.57;;;7.90;;
12308;SDS011;6217;48.150;17.142;2024-01-30T14:07:10;10.35;;;5.75;;
12308;SDS011;6217;48.150;17.142;2024-01-30T14:11:16;8.90;;;7.13;;
12308;SDS011;6217;48.150;17.142;2024-01-30T14:15:22;12.43;;;6.50;;
12308;SDS011;6217;48.150;17.142;2024-01-30T14:19:27;11.30;;;6.10;;
12308;SDS011;6217;48.150;17.142;2024-01-30T14:23:36;11.38;;;7.50;;
12308;SDS011;6217;48.150;17.142;2024-01-30T14:27:43;11.73;;;9.38;;
12308;SDS011;6217;48.150;17.142;2024-01-30T14:31:49;17.23;;;6.30;;
12308;SDS011;6217;48.150;17.142;2024-01-30T14:35:55;11.00;;;7.78;;
12308;SDS011;6217;48.150;17.142;2024-01-30T14:40:01;10.65;;;6.88;;
12308;SDS011;6217;48.150;17.142;2024-01-30T14:44:07;11.40;;;6.88;;
12308;SDS011;6217;48.150;17.142;2024-01-30T14:48:14;8.20;;;6.10;;
12308;SDS011;6217;48.150;17.142;2024-01-30T14:52:20;12.55;;;7.35;;
12308;SDS011;6217;48.150;17.142;2024-01-30T14:56:27;13.80;;;8.38;;
12308;SDS011;6217;48.150;17.142;2024-01-30T15:00:33;11.18;;;8.20;;
12308;SDS011;6217;48.150;17.142;2024-01-30T15:04:40;13.93;;;9.95;;
12308;SDS011;6217;48.150;17.142;2024-01-30T15:08:46;10.15;;;5.32;;
12308;SDS011;6217;48.150;17.142;2024-01-30T15:12:52;11.55;;;8.35;;
12308;SDS011;6217;48.150;17.142;2024-01-30T15:16:58;12.02;;;8.32;;
12308;SDS011;6217;48.150;17.142;2024-01-30T15:21:04;17.27;;;9.52;;
12308;SDS011;6217;48.150;17.142;2024-01-30T15:25:11;20.98;;;9.50;;
12308;SDS011;6217;48.150;17.142;2024-01-30T15:34:10;14.80;;;8.88;;
12308;SDS011;6217;48.150;17.142;2024-01-30T15:38:16;19.25;;;9.77;;
12308;SDS011;6217;48.150;17.142;2024-01-30T15:42:24;15.05;;;11.18;;
12308;SDS011;6217;48.150;17.142;2024-01-30T15:46:31;20.05;;;11.35;;
12308;SDS011;6217;48.150;17.142;2024-01-30T15:50:37;17.35;;;10.07;;
12308;SDS011;6217;48.150;17.142;2024-01-30T15:54:45;16.45;;;10.00;;
12308;SDS011;6217;48.150;17.142;2024-01-30T15:58:52;19.92;;;12.05;;
12308;SDS011;6217;48.150;17.142;2024-01-30T16:02:58;22.48;;;13.23;;
12308;SDS011;6217;48.150;17.142;2024-01-30T16:07:04;16.95;;;11.25;;
12308;SDS011;6217;48.150;17.142;2024-01-30T16:11:10;20.48;;;11.68;;
12308;SDS011;6217;48.150;17.142;2024-01-30T16:15:16;15.13;;;10.35;;
12308;SDS011;6217;48.150;17.142;2024-01-30T16:19:23;21.52;;;12.38;;
12308;SDS011;6217;48.150;17.142;2024-01-30T16:23:56;27.30;;;13.07;;
12308;SDS011;6217;48.150;17.142;2024-01-30T16:28:02;19.50;;;14.70;;
12308;SDS011;6217;48.150;17.142;2024-01-30T16:32:08;21.70;;;13.65;;
12308;SDS011;6217;48.150;17.142;2024-01-30T16:36:15;21.10;;;15.13;;
12308;SDS011;6217;48.150;17.142;2024-01-30T16:40:21;22.27;;;15.40;;
12308;SDS011;6217;48.150;17.142;2024-01-30T16:44:27;17.58;;;11.10;;
12308;SDS011;6217;48.150;17.142;2024-01-30T16:48:33;23.67;;;14.73;;
12308;SDS011;6217;48.150;17.142;2024-01-30T16:52:39;23.52;;;14.65;;
12308;SDS011;6217;48.150;17.142;2024-01-30T16:56:45;19.38;;;13.85;;
12308;SDS011;6217;48.150;17.142;2024-01-30T17:00:53;21.98;;;14.05;;
12308;SDS011;6217;48.150;17.142;2024-01-30T17:04:58;25.73;;;17.08;;
12308;SDS011;6217;48.150;17.142;2024-01-30T17:09:04;20.88;;;14.60;;
12308;SDS011;6217;48.150;17.142;2024-01-30T17:13:10;24.45;;;15.27;;
12308;SDS011;6217;48.150;17.142;2024-01-30T17:17:16;23.80;;;15.23;;
12308;SDS011;6217;48.150;17.142;2024-01-30T17:21:22;26.73;;;14.82;;
12308;SDS011;6217;48.150;17.142;2024-01-30T17:25:30;24.27;;;17.35;;
12308;SDS011;6217;48.150;17.142;2024-01-30T17:29:37;25.90;;;18.30;;
12308;SDS011;6217;48.150;17.142;2024-01-30T17:33:42;29.88;;;17.45;;
12308;SDS011;6217;48.150;17.142;2024-01-30T17:37:48;34.15;;;17.77;;
12308;SDS011;6217;48.150;17.142;2024-01-30T17:41:55;29.48;;;16.98;;
12308;SDS011;6217;48.150;17.142;2024-01-30T17:46:01;28.60;;;16.85;;
12308;SDS011;6217;48.150;17.142;2024-01-30T17:50:09;27.85;;;18.95;;
12308;SDS011;6217;48.150;17.142;2024-01-30T17:54:15;31.08;;;18.98;;
12308;SDS011;6217;48.150;17.142;2024-01-30T17:58:21;31.02;;;18.05;;
12308;SDS011;6217;48.150;17.142;2024-01-30T18:02:27;29.77;;;16.65;;
12308;SDS011;6217;48.150;17.142;2024-01-30T18:06:33;32.50;;;19.25;;
12308;SDS011;6217;48.150;17.142;2024-01-30T18:10:39;27.85;;;17.45;;
12308;SDS011;6217;48.150;17.142;2024-01-30T18:14:45;30.10;;;17.83;;
12308;SDS011;6217;48.150;17.142;2024-01-30T18:18:51;30.00;;;19.80;;
12308;SDS011;6217;48.150;17.142;2024-01-30T18:22:57;29.17;;;17.48;;
12308;SDS011;6217;48.150;17.142;2024-01-30T18:27:03;30.70;;;19.10;;
12308;SDS011;6217;48.150;17.142;2024-01-30T18:31:10;29.55;;;19.63;;
12308;SDS011;6217;48.150;17.142;2024-01-30T18:35:16;33.42;;;21.95;;
12308;SDS011;6217;48.150;17.142;2024-01-30T18:39:21;34.67;;;21.88;;
12308;SDS011;6217;48.150;17.142;2024-01-30T18:43:28;34.83;;;21.13;;
12308;SDS011;6217;48.150;17.142;2024-01-30T18:47:34;27.42;;;19.02;;
12308;SDS011;6217;48.150;17.142;2024-01-30T18:51:40;34.08;;;20.83;;
12308;SDS011;6217;48.150;17.142;2024-01-30T18:55:46;33.63;;;21.08;;
12308;SDS011;6217;48.150;17.142;2024-01-30T18:59:52;36.10;;;20.67;;
12308;SDS011;6217;48.150;17.142;2024-01-30T19:03:58;26.80;;;17.58;;
12308;SDS011;6217;48.150;17.142;2024-01-30T19:08:04;29.80;;;19.23;;
12308;SDS011;6217;48.150;17.142;2024-01-30T19:12:10;32.03;;;20.35;;
12308;SDS011;6217;48.150;17.142;2024-01-30T19:16:16;32.28;;;19.63;;
12308;SDS011;6217;48.150;17.142;2024-01-30T19:20:22;32.78;;;19.40;;
12308;SDS011;6217;48.150;17.142;2024-01-30T19:24:28;31.65;;;18.88;;
12308;SDS011;6217;48.150;17.142;2024-01-30T19:28:34;36.20;;;20.55;;
12308;SDS011;6217;48.150;17.142;2024-01-30T19:32:40;32.72;;;20.48;;
12308;SDS011;6217;48.150;17.142;2024-01-30T19:36:46;33.40;;;20.17;;
12308;SDS011;6217;48.150;17.142;2024-01-30T19:40:52;31.63;;;18.67;;
12308;SDS011;6217;48.150;17.142;2024-01-30T19:44:58;32.80;;;19.60;;
12308;SDS011;6217;48.150;17.142;2024-01-30T19:49:04;30.48;;;18.45;;
12308;SDS011;6217;48.150;17.142;2024-01-30T19:53:10;32.85;;;20.60;;
12308;SDS011;6217;48.150;17.142;2024-01-30T19:57:16;36.10;;;21.90;;
12308;SDS011;6217;48.150;17.142;2024-01-30T20:01:22;31.80;;;18.70;;
12308;SDS011;6217;48.150;17.142;2024-01-30T20:05:28;34.25;;;19.60;;
12308;SDS011;6217;48.150;17.142;2024-01-30T20:09:34;34.88;;;21.85;;
12308;SDS011;6217;48.150;17.142;2024-01-30T20:13:40;33.15;;;19.73;;
12308;SDS011;6217;48.150;17.142;2024-01-30T20:17:46;33.50;;;20.08;;
12308;SDS011;6217;48.150;17.142;2024-01-30T20:21:52;36.60;;;21.50;;
12308;SDS011;6217;48.150;17.142;2024-01-30T20:25:59;36.42;;;20.45;;
12308;SDS011;6217;48.150;17.142;2024-01-30T20:30:07;32.95;;;21.23;;
12308;SDS011;6217;48.150;17.142;2024-01-30T20:34:17;34.78;;;21.13;;
12308;SDS011;6217;48.150;17.142;2024-01-30T20:38:23;38.63;;;23.55;;
12308;SDS011;6217;48.150;17.142;2024-01-30T20:42:29;34.08;;;20.85;;
12308;SDS011;6217;48.150;17.142;2024-01-30T20:46:35;35.65;;;20.58;;
12308;SDS011;6217;48.150;17.142;2024-01-30T20:50:41;38.53;;;22.90;;
12308;SDS011;6217;48.150;17.142;2024-01-30T20:54:47;33.85;;;22.27;;
12308;SDS011;6217;48.150;17.142;2024-01-30T20:58:53;39.20;;;24.08;;
12308;SDS011;6217;48.150;17.142;2024-01-30T21:02:59;35.35;;;21.15;;
12308;SDS011;6217;48.150;17.142;2024-01-30T21:07:05;38.03;;;21.27;;
12308;SDS011;6217;48.150;17.142;2024-01-30T21:11:11;35.80;;;21.10;;
12308;SDS011;6217;48.150;17.142;2024-01-30T21:15:19;32.17;;;21.00;;
12308;SDS011;6217;48.150;17.142;2024-01-30T21:19:25;39.90;;;22.48;;
12308;SDS011;6217;48.150;17.142;2024-01-30T21:23:31;39.35;;;21.67;;
12308;SDS011;6217;48.150;17.142;2024-01-30T21:27:37;35.80;;;21.63;;
12308;SDS011;6217;48.150;17.142;2024-01-30T21:31:44;37.05;;;24.83;;
12308;SDS011;6217;48.150;17.142;2024-01-30T21:35:51;38.28;;;23.55;;
12308;SDS011;6217;48.150;17.142;2024-01-30T21:39:57;39.67;;;23.23;;
12308;SDS011;6217;48.150;17.142;2024-01-30T21:44:03;37.03;;;22.92;;
12308;SDS011;6217;48.150;17.142;2024-01-30T21:48:12;33.22;;;21.80;;
12308;SDS011;6217;48.150;17.142;2024-01-30T21:52:18;40.92;;;26.02;;
12308;SDS011;6217;48.150;17.142;2024-01-30T21:56:23;38.75;;;24.38;;
12308;SDS011;6217;48.150;17.142;2024-01-30T22:00:29;32.25;;;21.40;;
12308;SDS011;6217;48.150;17.142;2024-01-30T22:04:36;41.25;;;25.70;;
12308;SDS011;6217;48.150;17.142;2024-01-30T22:08:43;32.92;;;22.35;;
12308;SDS011;6217;48.150;17.142;2024-01-30T22:12:49;31.33;;;21.65;;
12308;SDS011;6217;48.150;17.142;2024-01-30T22:16:55;31.80;;;20.80;;
12308;SDS011;6217;48.150;17.142;2024-01-30T22:21:01;35.20;;;20.02;;
12308;SDS011;6217;48.150;17.142;2024-01-30T22:25:12;37.05;;;21.30;;
12308;SDS011;6217;48.150;17.142;2024-01-30T22:29:18;33.47;;;21.95;;
12308;SDS011;6217;48.150;17.142;2024-01-30T22:33:24;35.25;;;21.55;;
12308;SDS011;6217;48.150;17.142;2024-01-30T22:37:31;40.20;;;23.83;;
12308;SDS011;6217;48.150;17.142;2024-01-30T22:41:37;37.03;;;22.35;;
12308;SDS011;6217;48.150;17.142;2024-01-30T22:45:43;31.77;;;20.48;;
12308;SDS011;6217;48.150;17.142;2024-01-30T22:49:49;31.85;;;19.25;;
12308;SDS011;6217;48.150;17.142;2024-01-30T22:53:55;31.95;;;19.88;;
12308;SDS011;6217;48.150;17.142;2024-01-30T22:58:01;31.67;;;21.10;;
12308;SDS011;6217;48.150;17.142;2024-01-30T23:02:06;32.60;;;20.52;;
12308;SDS011;6217;48.150;17.142;2024-01-30T23:06:12;32.05;;;19.88;;
12308;SDS011;6217;48.150;17.142;2024-01-30T23:10:18;30.27;;;20.75;;
12308;SDS011;6217;48.150;17.142;2024-01-30T23:14:24;31.23;;;19.13;;
12308;SDS011;6217;48.150;17.142;2024-01-30T23:18:30;32.88;;;21.52;;
12308;SDS011;6217;48.150;17.142;2024-01-30T23:22:36;32.97;;;21.05;;
12308;SDS011;6217;48.150;17.142;2024-01-30T23:26:42;37.60;;;21.95;;
12308;SDS011;6217;48.150;17.142;2024-01-30T23:30:48;38.85;;;21.58;;
12308;SDS011;6217;48.150;17.142;2024-01-30T23:34:54;32.92;;;21.20;;
12308;SDS011;6217;48.150;17.142;2024-01-30T23:39:00;35.83;;;20.42;;
12308;SDS011;6217;48.150;17.142;2024-01-30T23:43:06;39.28;;;20.73;;
12308;SDS011;6217;48.150;17.142;2024-01-30T23:47:12;32.10;;;19.58;;
12308;SDS011;6217;48.150;17.142;2024-01-30T23:51:18;38.28;;;19.45;;
12308;SDS011;6217;48.150;17.142;2024-01-30T23:55:24;35.00;;;19.45;;
12308;SDS011;6217;48.150;17.142;2024-01-30T23:59:30;39.53;;;22.45;;
